NY Terminal Aviation Weather Discussion (AFD) - Prepared: 1033 PM EDT MON OCT 20 2014
LOW PRESSURE APPROACHES FROM THE NORTHWEST THROUGH TONIGHT...THEN 
BECOMES NEARLY STATIONARY ACROSS NEW YORK...PENNSYLVANIA...AND INTO 
VIRGINIA TUESDAY AS ANOTHER LOW DEVELOPS OFF THE COAST.

VFR WITH A CHANCE OF LIGHT RAIN LATE TONIGHT...TOWARD TUESDAY 
MORNING. LIGHT RAIN BECOMES MORE WIDESPREAD AND LIKELY TUESDAY WITH 
CONDITIONS MAINLY VFR. THERE IS A CHANCE OF MVFR CEILINGS BY THE 
AFTERNOON.

LOW CONFIDENCE IN THE WIND FORECAST. TONIGHT LIGHT SOUTH TO 
SOUTHWEST WIND BECOMES VARIABLE OUTSIDE THE NY TERMINALS. THE WIND 
BACKS TO THE SOUTHEAST TO EAST TUESDAY MORNING AND REMAINS LIGHT. 
THERE IS A CHANCE OF LIGHT AND VARIABLE WIND THROUGH MOST OF THE DAY 
TUESDAY.

   
5 Day General Aviation Outlook:

.OUTLOOK FOR 00Z WEDNESDAY THROUGH SATURDAY...
.TUESDAY NIGHT...OCNL MVFR CIGS AND VSBYS IN LIGHT RAIN. 
.WEDNESDAY THROUGH THURSDAY...MVFR OR LOWER CONDS IN RAIN. NLY
FLOW 10 TO 15 KT G20-25KT.
.FRIDAY...IMPROVING CONDS. NW WINDS 15-20 KT WITH 20-25 KT GUSTS.
.SATURDAY..VFR. NW G20KT.


NY Metro Terminal Aviation Weather Summary: (Explanation of Color Coding)
NOTE: All Wind Directions are TRUE (add 13 degrees for magnetic directions). Tail and Crosswind Calculations do account for the magnetic deviation of runways.

Click on the Airport Below for Specific Information at that Terminal

TAF Overview JFK TAF LGA TAF EWR TAF TEB TAF HPN TAF ISP TAF

Jump to AirSpace Impacts Section Condensed "lite" version of SPA page
**************************************************************************************
KJFK Terminal Weather: (Wind Directions Are True, Except Where Noted, ADD 13 degrees for Magnetic)

5MIN KJFK 210520Z 22006KT 10SM CLR 14/07 A2996 -20 59 0
      230/06 RMK AO2
5MIN KJFK 210515Z 22007KT 10SM CLR 14/07 A2996 -20 61 
     -100 230/07 RMK AO2
********************************************
****        MAGNETIC DIRECTIONS         ****
********************************************
KJFK 10/21/2014 05:34:57 GMT 220 07 KT
KJFK 10/21/2014 05:32:57 GMT 220 07 KT
KJFK 10/21/2014 05:30:57 GMT 220 07 KT
KJFK 10/21/2014 05:28:57 GMT 210 06 KT
KJFK 10/21/2014 05:26:57 GMT 210 06 KT
KJFK 10/21/2014 05:24:57 GMT 220 07 KT
KJFK 10/21/2014 05:22:57 GMT 220 07 KT
KJFK 10/21/2014 05:20:57 GMT 220 06 KT
KJFK 10/21/2014 05:18:57 GMT 220 07 KT
KJFK 10/21/2014 05:16:57 GMT 220 08 KT
SAUS70 KJFK 210500 RRD
METAR KJFK 210451Z 22008KT 10SM SCT130 BKN210 14/07 A2998 RMK AO2 SLP150
     T01390072 401610056
FTNA35 KJFK 210239 RRC
KJFK 210231Z 2103/2206 20010KT P6SM FEW040 SCT150 BKN200
     FM210600 20006KT P6SM SCT040 BKN120
     FM211000 15005KT P6SM -RA BKN040 OVC100
     FM211500 16006KT P6SM -RA BKN035 OVC080
     FM220100 VRB04KT 6SM -RADZ SCT020 OVC030
KJFK Forecaster Comments Not Available at This Time
jfk

JFK Hourly Forecast Temperature (C)

JFK Hourly TMPS
**************************************************************************************
KLGA Terminal Weather: (Wind Directions Are True, Except Where Noted, ADD 13 degrees for Magnetic)

5MIN KLGA 210520Z 17004KT 10SM CLR 13/07 A2994 0 64 
     -100 180/04 RMK AO2
5MIN KLGA 210515Z 17004KT 10SM CLR 13/07 A2994 0 64 
     -100 180/04 RMK AO2
********************************************
****        MAGNETIC DIRECTIONS         ****
********************************************
KLGA 10/21/2014 05:35:52 GMT 200 05 KT
KLGA 10/21/2014 05:33:52 GMT 200 05 KT
KLGA 10/21/2014 05:31:53 GMT 200 04 KT
KLGA 10/21/2014 05:29:52 GMT 190 05 KT
KLGA 10/21/2014 05:27:52 GMT 190 05 KT
KLGA 10/21/2014 05:25:51 GMT 190 05 KT
KLGA 10/21/2014 05:23:51 GMT 190 05 KT
KLGA 10/21/2014 05:21:52 GMT 190 05 KT
KLGA 10/21/2014 05:19:51 GMT 200 04 KT
KLGA 10/21/2014 05:17:51 GMT 200 04 KT
SAUS70 KLGA 210500
METAR KLGA 210451Z 19004KT 10SM OVC200 14/07 A2996 RMK AO2 SLP145
     T01390067 401610067
FTUS80 KLGA 210233 AAB
KLGA 210231Z 2103/2124 20006KT P6SM FEW050 SCT150 BKN200
     FM210600 19006KT P6SM SCT050 BKN120
     FM211000 11004KT P6SM -RA BKN040 OVC100
     FM211500 14005KT P6SM -RA BKN035 OVC080
KLGA Forecaster Comments Not Available at This Time
lga


**************************************************************************************

KEWR Terminal Weather: (Wind Directions Are True, Except Where Noted, ADD 13 degrees for Magnetic)

5MIN KEWR 210530Z 00000KT 10SM BKN160 OVC200 12/07 
     A2995 0 68 -200 000/00 RMK AO2
5MIN KEWR 210525Z 00000KT 10SM BKN160 OVC200 12/07 
     A2995 0 68 -200 000/00 RMK AO2
********************************************
****        MAGNETIC DIRECTIONS         ****
********************************************
KEWR 10/21/2014 05:35:02 GMT CAL  KT
KEWR 10/21/2014 05:33:24 GMT CAL  KT
KEWR 10/21/2014 05:31:02 GMT CAL  KT
KEWR 10/21/2014 05:29:02 GMT CAL  KT
KEWR 10/21/2014 05:27:23 GMT CAL  KT
KEWR 10/21/2014 05:25:02 GMT CAL  KT
KEWR 10/21/2014 05:23:02 GMT CAL  KT
KEWR 10/21/2014 05:21:23 GMT CAL  KT
KEWR 10/21/2014 05:19:02 GMT CAL  KT
KEWR 10/21/2014 05:17:02 GMT CAL  KT
SAUS70 KEWR 210500
METAR KEWR 210451Z 00000KT 10SM BKN130 BKN250 12/07 A2996 RMK AO2 SLP144
     T01220067 401670039
FTUS80 KEWR 210233 AAA
KEWR 210231Z 2103/2206 19005KT P6SM FEW050 SCT150 BKN200
     FM210600 20004KT P6SM SCT050 BKN120
     FM211000 VRB03KT P6SM -RA BKN040 OVC100
     FM211500 12005KT P6SM -RA BKN035 OVC080
     FM220100 VRB04KT 6SM -RADZ SCT020 OVC030
KEWR Forecaster Comments Not Available at This Time
ewr
Afternoon EWR Haze Potential Forecast: KEWR Haze Forecast Not Available at This Time
IS NOT AVAILABLE AT THIS TIME


******************************************************************************

KTEB Terminal Weather:
SAUS80 KTEB 210500
METAR KTEB 210451Z 23003KT 10SM CLR 12/07 A2995 RMK AO2 SLP142 T01220067
     401610033
FTUS80 KTEB 210233 AAB
KTEB 210231Z 2103/2124 VRB02KT P6SM SCT150 BKN200
     FM210600 VRB02KT P6SM SCT040 BKN120
     FM211000 VRB02KT P6SM -RA BKN035 OVC100
     FM211500 14004KT P6SM -RA BKN040 OVC080
KTEB Forecaster Comments Not Available at This Time
teb

 


**************************************************************************************

KHPN Terminal Weather:
SAUS70 KHPN 210500 RRD
METAR KHPN 210456Z VRB03KT 10SM FEW047 12/06 A2996 RMK AO2 SLP146
     T01220061 401390011
FTUS80 KHPN 202342 RRD
KHPN 202338Z 2100/2124 VRB02KT P6SM FEW050 SCT150 BKN200
     FM210600 VRB03KT P6SM BKN040 BKN120
     FM211500 14004KT P6SM -RA BKN040 OVC100 AMD NOT SKED
KHPN Forecaster Comments Not Available at This Time
HPN


******************************************************************************

KISP Terminal Weather:
SAUS70 KISP 210500 RRD
METAR KISP 210456Z AUTO 22007KT 10SM CLR 14/08 A2996 RMK AO2 SLP144
     T01440078 401500017
FTUS80 KISP 210233 AAA
KISP 210231Z 2103/2124 21006KT P6SM FEW035 SCT150 BKN250
     FM210600 18004KT P6SM SCT035 OVC100
     FM211500 14004KT P6SM -RA BKN035 OVC070
KISP Forecaster Comments Not Available at This Time
ISP

 


ZNY SWAP Season Information

(ZNY SWAP STATEMENT) (Click for PDF File) (ZNY BRIEFING) (Click for PDF File)

*******************************************************
***        NY AIR ROUTE TRAFFIC CONTROL CENTER      ***
***                DAILY SWAP STATEMENT             ***
*******************************************************
NY AIR ROUTE TRAFFIC CONTROL CENTER
DAILY SWAP STATEMENT
TUESDAY OCTOBER 15, 2014
ZNY IS IN SWAP.
AN EXPANSIVE N-S ORIENTED AREA OF SHRA AND EMBD TS WILL SLOWLY 
SPREAD EASTWARD TODAY...REACHING N90/PHL TRACON AIRSPACE BY 16-17Z. 
TOPS MOSTLY BLW FL320...ISOLD FL350.

ADDT'L INFO:
AZEZU-PAEPR-HANRI(L453-M201):  NO IMPACTS EXPECTED. 
DITCH: IMPACTS PSBL AFT 19Z.
EAST GATES: IMPACTS PBSL OVERNIGHT.
TOMORROW MORNINGS SWAP OUTLOOK:  SWAP IS POSSIBLE.
$$
MMD





N90 AirSpace Impacts

N90 ZNY Gate TSTM Forecast    SWAP Day One Forecast

SWAP Day One Forecast    SWAP Day Two Outlook

National Collaborative Convective Forecast Product (CCFP) Forecasts (Mar-Oct)


Vertical Wind Profile
Untitled Document